createdAt,value
2019-03-06T00:02:02.425Z,6.98
2019-03-06T00:04:34.583Z,6.98
2019-03-06T00:07:06.615Z,6.97
2019-03-06T00:09:38.560Z,6.96
2019-03-06T00:12:10.525Z,6.97
2019-03-06T00:14:42.761Z,6.94
2019-03-06T00:17:14.738Z,6.92
2019-03-06T00:19:46.709Z,6.90
2019-03-06T00:22:18.669Z,6.90
2019-03-06T00:24:50.899Z,6.89
2019-03-06T00:27:22.879Z,6.89
2019-03-06T00:29:54.826Z,6.89
2019-03-06T00:32:26.780Z,6.88
2019-03-06T00:35:00.378Z,6.90
2019-03-06T00:37:32.328Z,6.94
2019-03-06T00:40:12.043Z,6.98
2019-03-06T00:42:45.630Z,7.02
2019-03-06T00:45:17.587Z,7.07
2019-03-06T00:47:49.537Z,7.11
2019-03-06T00:50:21.830Z,7.15
2019-03-06T00:52:53.787Z,7.18
2019-03-06T00:55:25.763Z,7.21
2019-03-06T00:57:57.723Z,7.22
2019-03-06T01:00:29.744Z,7.25
2019-03-06T01:03:01.777Z,7.24
2019-03-06T01:05:33.755Z,7.23
2019-03-06T01:08:06.103Z,7.22
2019-03-06T01:10:38.070Z,7.19
2019-03-06T01:13:10.046Z,7.18
2019-03-06T01:15:42.281Z,7.16
2019-03-06T01:18:14.551Z,7.17
2019-03-06T01:20:46.564Z,7.17
2019-03-06T01:23:18.534Z,7.15
2019-03-06T01:25:50.485Z,7.12
2019-03-06T01:28:22.470Z,7.10
2019-03-06T01:30:54.484Z,7.08
2019-03-06T01:33:33.612Z,7.06
2019-03-06T01:36:16.453Z,7.06
2019-03-06T01:39:07.232Z,7.05
2019-03-06T01:41:52.906Z,7.04
2019-03-06T01:44:26.565Z,7.04
2019-03-06T01:46:58.592Z,7.05
2019-03-06T01:49:30.947Z,7.09
2019-03-06T01:52:03.443Z,7.10
2019-03-06T01:54:35.451Z,7.12
2019-03-06T01:57:07.414Z,7.12
2019-03-06T01:59:39.364Z,7.12
2019-03-06T02:02:11.894Z,7.12
2019-03-06T02:04:44.163Z,7.13
2019-03-06T02:07:16.237Z,7.13
2019-03-06T02:09:48.176Z,7.16
2019-03-06T02:12:20.146Z,7.17
2019-03-06T02:14:52.386Z,7.18
2019-03-06T02:17:41.893Z,7.19
2019-03-06T02:20:17.237Z,7.21
2019-03-06T02:22:49.189Z,7.21
2019-03-06T02:25:21.139Z,7.21
2019-03-06T02:27:53.109Z,7.19
2019-03-06T02:30:26.688Z,7.17
2019-03-06T02:32:58.662Z,7.12
2019-03-06T02:35:31.201Z,7.08
2019-03-06T02:38:03.170Z,7.02
2019-03-06T02:40:35.109Z,7.00
2019-03-06T02:43:07.057Z,6.96
2019-03-06T02:45:39.025Z,6.93
2019-03-06T02:48:11.281Z,6.89
2019-03-06T02:50:43.580Z,6.83
2019-03-06T02:53:15.534Z,6.80
2019-03-06T02:55:47.767Z,6.77
2019-03-06T02:58:27.062Z,6.75
2019-03-06T03:01:03.362Z,6.73
2019-03-06T03:03:36.981Z,6.69
2019-03-06T03:06:25.818Z,6.70
2019-03-06T03:08:57.793Z,6.67
2019-03-06T03:11:29.747Z,6.65
2019-03-06T03:14:01.716Z,6.63
2019-03-06T03:16:33.667Z,6.61
2019-03-06T03:19:05.788Z,6.59
2019-03-06T03:21:37.970Z,6.56
2019-03-06T03:24:09.935Z,6.54
2019-03-06T03:26:42.076Z,6.51
2019-03-06T03:29:14.029Z,6.48
2019-03-06T03:31:46.346Z,6.45
2019-03-06T03:34:18.374Z,6.43
2019-03-06T03:36:50.674Z,6.41
2019-03-06T03:39:22.631Z,6.40
2019-03-06T03:41:54.631Z,6.37
2019-03-06T03:44:26.968Z,6.35
2019-03-06T03:46:58.924Z,6.31
2019-03-06T03:49:30.877Z,6.28
2019-03-06T03:52:02.906Z,6.24
2019-03-06T03:54:34.871Z,6.21
2019-03-06T03:57:07.209Z,6.18
2019-03-06T03:59:39.165Z,6.14
2019-03-06T04:02:11.153Z,6.12
2019-03-06T04:04:43.104Z,6.11
2019-03-06T04:07:15.059Z,6.07
2019-03-06T04:09:47.661Z,6.05
2019-03-06T04:12:19.600Z,6.00
2019-03-06T04:14:52.181Z,5.94
2019-03-06T04:17:24.191Z,5.92
2019-03-06T04:19:56.361Z,5.86
2019-03-06T04:22:28.320Z,5.93
2019-03-06T04:25:00.428Z,5.91
2019-03-06T04:27:32.446Z,5.88
2019-03-06T04:30:07.179Z,5.87
2019-03-06T04:32:39.156Z,5.82
2019-03-06T04:35:11.249Z,5.80
2019-03-06T04:37:43.247Z,5.77
2019-03-06T04:40:16.153Z,5.75
2019-03-06T04:42:48.143Z,5.75
2019-03-06T04:45:20.174Z,5.74
2019-03-06T04:47:52.413Z,5.72
2019-03-06T04:50:24.376Z,5.70
2019-03-06T04:52:56.647Z,5.67
2019-03-06T04:55:28.596Z,5.66
2019-03-06T04:58:00.616Z,5.65
2019-03-06T05:00:32.567Z,5.63
2019-03-06T05:03:04.538Z,5.63
2019-03-06T05:05:36.773Z,5.61
2019-03-06T05:08:08.741Z,5.60
2019-03-06T05:10:40.693Z,5.59
2019-03-06T05:13:12.718Z,5.56
2019-03-06T05:15:44.670Z,5.55
2019-03-06T05:18:18.267Z,5.52
2019-03-06T05:20:50.241Z,5.49
2019-03-06T05:23:22.222Z,5.46
2019-03-06T05:25:54.178Z,5.43
2019-03-06T05:28:26.136Z,5.41
2019-03-06T05:30:58.324Z,5.40
2019-03-06T05:33:30.350Z,5.39
2019-03-06T05:36:18.895Z,5.36
2019-03-06T05:39:02.586Z,5.33
2019-03-06T05:41:34.553Z,5.32
2019-03-06T05:44:06.958Z,5.32
2019-03-06T05:46:38.925Z,5.30
2019-03-06T05:49:11.651Z,5.30
2019-03-06T05:51:43.613Z,5.32
2019-03-06T05:54:15.576Z,5.34
2019-03-06T05:56:48.493Z,5.39
2019-03-06T05:59:20.869Z,5.42
2019-03-06T06:01:52.832Z,5.45
2019-03-06T06:04:24.813Z,5.46
2019-03-06T06:06:56.770Z,5.47
2019-03-06T06:09:29.140Z,5.48
2019-03-06T06:12:01.107Z,5.50
2019-03-06T06:14:33.080Z,5.51
2019-03-06T06:17:05.146Z,5.53
2019-03-06T06:19:37.549Z,5.55
2019-03-06T06:22:13.814Z,5.56
2019-03-06T06:24:46.045Z,5.57
2019-03-06T06:27:18.005Z,5.57
2019-03-06T06:29:50.688Z,5.61
2019-03-06T06:32:22.647Z,5.61
2019-03-06T06:34:54.599Z,5.62
2019-03-06T06:37:27.133Z,5.63
2019-03-06T06:39:59.737Z,5.64
2019-03-06T06:42:31.721Z,5.65
2019-03-06T06:45:04.537Z,5.66
2019-03-06T06:47:36.492Z,5.67
2019-03-06T06:50:10.786Z,5.69
2019-03-06T06:53:04.529Z,5.73
2019-03-06T06:55:41.479Z,5.76
2019-03-06T06:58:31.045Z,5.76
2019-03-06T07:01:11.883Z,5.77
2019-03-06T07:04:41.389Z,5.76
2019-03-06T07:07:14.981Z,5.77
2019-03-06T07:10:06.649Z,5.77
2019-03-06T07:12:40.526Z,5.79
2019-03-06T07:15:20.282Z,5.84
2019-03-06T07:18:00.152Z,5.87
2019-03-06T07:20:36.708Z,5.92
2019-03-06T07:23:22.277Z,5.98
2019-03-06T07:26:05.129Z,6.02
2019-03-06T07:28:38.720Z,6.07
2019-03-06T07:31:12.328Z,6.13
2019-03-06T07:33:45.942Z,6.16
2019-03-06T07:36:19.557Z,6.22
2019-03-06T07:38:52.237Z,6.25
2019-03-06T07:41:28.528Z,6.33
2019-03-06T07:44:18.277Z,6.35
2019-03-06T07:46:58.050Z,6.37
2019-03-06T07:49:31.627Z,6.37
2019-03-06T07:52:23.464Z,6.38
2019-03-06T07:55:09.301Z,6.40
2019-03-06T07:58:37.530Z,6.45
2019-03-06T08:01:16.874Z,6.46
2019-03-06T08:03:43.775Z,6.50
2019-03-06T08:06:16.174Z,6.54
2019-03-06T08:08:50.387Z,6.59
2019-03-06T08:11:23.994Z,6.63
2019-03-06T08:13:57.599Z,6.69
2019-03-06T08:16:31.636Z,6.77
2019-03-06T08:19:05.627Z,6.84
2019-03-06T08:21:53.879Z,6.91
2019-03-06T08:24:27.943Z,6.96
2019-03-06T08:26:59.938Z,7.03
2019-03-06T08:29:31.911Z,7.07
2019-03-06T08:32:06.253Z,7.15
2019-03-06T08:34:38.294Z,7.20
2019-03-06T08:37:10.256Z,7.23
2019-03-06T08:39:42.403Z,7.30
2019-03-06T08:42:14.373Z,7.36
2019-03-06T08:44:46.517Z,7.44
2019-03-06T08:47:23.044Z,7.52
2019-03-06T08:49:59.207Z,7.59
2019-03-06T08:52:34.333Z,7.66
2019-03-06T08:55:11.108Z,7.71
2019-03-06T08:57:47.729Z,7.75
2019-03-06T09:00:30.676Z,7.76
2019-03-06T09:03:14.930Z,7.77
2019-03-06T09:06:04.935Z,7.77
2019-03-06T09:08:41.502Z,7.84
2019-03-06T09:11:17.796Z,7.92
2019-03-06T09:14:07.713Z,7.98
2019-03-06T09:16:47.248Z,8.04
2019-03-06T09:19:20.852Z,8.11
2019-03-06T09:22:10.672Z,8.18
2019-03-06T09:24:44.312Z,8.26
2019-03-06T09:27:17.930Z,8.31
2019-03-06T09:30:15.760Z,8.36
2019-03-06T09:32:50.505Z,8.41
2019-03-06T09:35:27.596Z,8.47
2019-03-06T09:38:11.072Z,8.52
2019-03-06T09:40:51.435Z,8.28
2019-03-06T09:43:25.051Z,8.61
2019-03-06T09:46:04.409Z,8.65
2019-03-06T09:48:40.759Z,8.67
2019-03-06T09:51:23.315Z,8.71
2019-03-06T09:53:57.213Z,8.75
2019-03-06T09:56:39.656Z,8.79
2019-03-06T09:59:28.391Z,8.83
2019-03-06T10:02:06.863Z,8.87
2019-03-06T10:04:43.069Z,8.89
2019-03-06T10:07:16.791Z,8.93
2019-03-06T10:09:58.867Z,8.99
2019-03-06T10:12:47.589Z,9.04
2019-03-06T10:15:22.839Z,9.08
2019-03-06T10:17:59.459Z,9.12
2019-03-06T10:20:31.689Z,9.17
2019-03-06T10:23:03.736Z,9.21
2019-03-06T10:25:35.714Z,9.23
2019-03-06T10:28:07.952Z,9.26
2019-03-06T10:30:40.139Z,9.31
2019-03-06T10:33:12.208Z,9.35
2019-03-06T10:35:44.763Z,9.40
2019-03-06T10:38:17.173Z,9.46
2019-03-06T10:40:49.268Z,9.49
2019-03-06T10:43:23.594Z,9.54
2019-03-06T10:45:58.020Z,9.58
2019-03-06T10:48:31.630Z,9.65
2019-03-06T10:51:03.804Z,9.67
2019-03-06T10:53:41.261Z,9.70
2019-03-06T10:56:09.610Z,9.72
2019-03-06T10:58:41.896Z,9.72
2019-03-06T11:01:14.234Z,9.75
2019-03-06T11:03:50.638Z,9.74
2019-03-06T11:06:22.692Z,9.75
2019-03-06T11:08:54.979Z,9.77
2019-03-06T11:11:26.940Z,9.77
2019-03-06T11:14:05.904Z,9.80
2019-03-06T11:16:34.739Z,9.84
2019-03-06T11:19:07.242Z,9.86
2019-03-06T11:21:39.257Z,9.89
2019-03-06T11:24:11.556Z,9.91
2019-03-06T11:26:43.796Z,9.90
2019-03-06T11:29:16.032Z,9.91
2019-03-06T11:31:48.148Z,9.93
2019-03-06T11:34:20.168Z,9.94
2019-03-06T11:36:52.591Z,9.96
2019-03-06T11:39:25.046Z,9.97
2019-03-06T11:41:57.077Z,9.94
2019-03-06T11:44:29.324Z,9.94
2019-03-06T11:47:01.704Z,9.94
2019-03-06T11:49:34.022Z,9.93
2019-03-06T11:52:06.565Z,9.96
2019-03-06T11:54:38.754Z,9.97
2019-03-06T11:57:10.934Z,9.97
2019-03-06T11:59:43.008Z,9.98
2019-03-06T12:02:16.964Z,9.98
2019-03-06T12:04:49.265Z,9.98
2019-03-06T12:07:21.902Z,9.97
2019-03-06T12:09:54.185Z,9.96
2019-03-06T12:12:26.161Z,9.96
2019-03-06T12:14:58.398Z,9.97
2019-03-06T12:17:30.744Z,9.78
2019-03-06T12:20:08.075Z,9.94
2019-03-06T12:22:36.428Z,9.97
2019-03-06T12:25:13.295Z,9.98
2019-03-06T12:27:45.287Z,10.00
2019-03-06T12:30:19.153Z,10.01
2019-03-06T12:32:51.232Z,10.02
2019-03-06T12:35:23.183Z,10.04
2019-03-06T12:37:55.675Z,10.08
2019-03-06T12:40:30.045Z,10.13
2019-03-06T12:43:02.317Z,10.14
2019-03-06T12:45:34.662Z,10.14
2019-03-06T12:48:17.270Z,10.14
2019-03-06T12:50:55.269Z,10.16
2019-03-06T12:53:23.799Z,10.18
2019-03-06T12:55:56.073Z,10.19
2019-03-06T12:58:28.507Z,10.22
2019-03-06T13:01:01.466Z,10.22
2019-03-06T13:03:34.262Z,10.25
2019-03-06T13:06:06.299Z,10.29
2019-03-06T13:08:38.890Z,10.32
2019-03-06T13:11:11.878Z,10.36
2019-03-06T13:13:43.897Z,10.39
2019-03-06T13:16:15.883Z,10.42
2019-03-06T13:18:47.873Z,10.44
2019-03-06T13:21:20.314Z,10.47
2019-03-06T13:23:52.296Z,10.50
2019-03-06T13:26:24.586Z,10.53
2019-03-06T13:28:57.621Z,10.56
2019-03-06T13:31:30.555Z,10.24
2019-03-06T13:34:13.378Z,10.64
2019-03-06T13:36:45.633Z,10.42
2019-03-06T13:39:17.714Z,10.71
2019-03-06T13:41:50.082Z,10.76
2019-03-06T13:44:22.623Z,10.77
2019-03-06T13:46:55.254Z,10.79
2019-03-06T13:49:27.578Z,10.82
2019-03-06T13:51:59.755Z,10.84
2019-03-06T13:54:32.274Z,10.87
2019-03-06T13:57:05.213Z,10.86
2019-03-06T13:59:37.382Z,10.56
2019-03-06T14:02:09.605Z,10.87
2019-03-06T14:04:41.678Z,10.58
2019-03-06T14:07:13.941Z,10.92
2019-03-06T14:09:46.257Z,10.94
2019-03-06T14:12:18.301Z,10.96
2019-03-06T14:14:50.391Z,10.96
2019-03-06T14:17:22.396Z,10.97
2019-03-06T14:19:54.348Z,10.98
2019-03-06T14:22:26.334Z,10.99
2019-03-06T14:24:58.291Z,11.01
2019-03-06T14:27:31.310Z,11.00
2019-03-06T14:30:04.869Z,11.01
2019-03-06T14:32:38.597Z,11.02
2019-03-06T14:35:10.684Z,11.02
2019-03-06T14:37:42.646Z,11.03
2019-03-06T14:40:27.846Z,11.06
2019-03-06T14:43:01.705Z,11.05
2019-03-06T14:45:33.828Z,11.06
2019-03-06T14:48:07.145Z,11.05
2019-03-06T14:50:39.106Z,11.06
2019-03-06T14:53:11.087Z,11.06
2019-03-06T14:55:43.125Z,11.05
2019-03-06T14:58:15.292Z,11.06
2019-03-06T15:00:47.388Z,11.05
2019-03-06T15:03:19.505Z,11.04
2019-03-06T15:05:51.469Z,11.04
2019-03-06T15:08:23.477Z,10.98
2019-03-06T15:10:55.448Z,11.03
2019-03-06T15:13:27.847Z,11.03
2019-03-06T15:16:00.548Z,11.01
2019-03-06T15:18:32.821Z,10.99
2019-03-06T15:21:05.011Z,10.99
2019-03-06T15:23:37.308Z,10.98
2019-03-06T15:26:10.047Z,10.97
2019-03-06T15:28:42.174Z,10.95
2019-03-06T15:31:14.530Z,10.93
2019-03-06T15:33:46.518Z,10.93
2019-03-06T15:36:18.557Z,10.91
2019-03-06T15:38:50.699Z,10.91
2019-03-06T15:41:22.664Z,10.91
2019-03-06T15:43:54.683Z,10.89
2019-03-06T15:46:31.339Z,10.89
2019-03-06T15:49:04.868Z,10.88
2019-03-06T15:51:36.845Z,10.89
2019-03-06T15:54:08.896Z,10.88
2019-03-06T15:56:41.263Z,10.86
2019-03-06T15:59:15.379Z,10.86
2019-03-06T16:01:47.455Z,10.86
2019-03-06T16:04:19.431Z,10.85
2019-03-06T16:06:54.200Z,10.84
2019-03-06T16:09:25.915Z,10.83
2019-03-06T16:11:58.413Z,10.81
2019-03-06T16:14:30.725Z,10.82
2019-03-06T16:17:02.833Z,10.82
2019-03-06T16:19:34.897Z,10.80
2019-03-06T16:22:07.326Z,10.79
2019-03-06T16:24:39.310Z,10.79
2019-03-06T16:27:11.329Z,10.78
2019-03-06T16:29:43.311Z,10.79
2019-03-06T16:32:16.154Z,10.77
2019-03-06T16:34:48.556Z,10.78
2019-03-06T16:37:20.788Z,10.78
2019-03-06T16:39:52.834Z,10.77
2019-03-06T16:42:24.889Z,10.78
2019-03-06T16:44:56.909Z,10.77
2019-03-06T16:47:28.913Z,10.77
2019-03-06T16:50:00.958Z,10.76
2019-03-06T16:52:33.199Z,10.75
2019-03-06T16:55:09.891Z,10.75
2019-03-06T16:57:42.341Z,10.75
2019-03-06T17:00:34.667Z,10.73
2019-03-06T17:03:10.364Z,10.73
2019-03-06T17:05:42.810Z,10.71
2019-03-06T17:08:14.842Z,10.71
2019-03-06T17:10:46.837Z,10.71
2019-03-06T17:13:18.944Z,10.72
2019-03-06T17:15:50.995Z,10.72
2019-03-06T17:18:23.345Z,10.77
2019-03-06T17:20:55.498Z,10.74
2019-03-06T17:23:27.555Z,10.75
2019-03-06T17:25:59.907Z,10.74
2019-03-06T17:28:32.225Z,10.73
2019-03-06T17:31:04.392Z,10.74
2019-03-06T17:33:36.359Z,10.75
2019-03-06T17:36:08.325Z,10.74
2019-03-06T17:38:40.523Z,10.75
2019-03-06T17:41:13.271Z,10.77
2019-03-06T17:43:46.098Z,10.78
2019-03-06T17:46:18.442Z,10.79
2019-03-06T17:48:50.926Z,10.80
2019-03-06T17:51:23.031Z,10.83
2019-03-06T17:53:54.993Z,10.83
2019-03-06T17:56:27.315Z,10.84
2019-03-06T17:59:00.214Z,10.86
2019-03-06T18:01:32.666Z,10.88
2019-03-06T18:04:06.967Z,10.90
2019-03-06T18:06:38.979Z,10.91
2019-03-06T18:09:11.961Z,10.93
2019-03-06T18:11:43.924Z,10.92
2019-03-06T18:14:15.988Z,10.93
2019-03-06T18:16:48.068Z,10.93
2019-03-06T18:19:20.027Z,10.94
2019-03-06T18:21:51.997Z,10.93
2019-03-06T18:24:24.232Z,10.93
2019-03-06T18:26:56.222Z,10.94
2019-03-06T18:29:28.181Z,10.93
2019-03-06T18:32:00.215Z,10.92
2019-03-06T18:34:32.239Z,10.93
2019-03-06T18:37:04.186Z,10.94
2019-03-06T18:39:36.226Z,10.95
2019-03-06T18:42:08.206Z,10.95
2019-03-06T18:44:40.472Z,10.94
2019-03-06T18:47:12.424Z,10.95
2019-03-06T18:49:44.472Z,10.96
2019-03-06T18:52:16.802Z,10.98
2019-03-06T18:54:49.130Z,11.01
2019-03-06T18:57:21.402Z,11.03
2019-03-06T18:59:53.382Z,11.03
2019-03-06T19:02:25.363Z,11.04
2019-03-06T19:04:57.610Z,11.05
2019-03-06T19:07:29.577Z,11.06
2019-03-06T19:10:01.535Z,11.07
2019-03-06T19:12:33.537Z,11.08
2019-03-06T19:15:09.771Z,11.08
2019-03-06T19:17:41.803Z,11.08
2019-03-06T19:20:15.463Z,11.09
2019-03-06T19:22:48.644Z,11.08
2019-03-06T19:25:21.010Z,11.09
2019-03-06T19:27:53.384Z,11.10
2019-03-06T19:30:27.113Z,11.12
2019-03-06T19:32:59.340Z,11.13
2019-03-06T19:35:31.329Z,11.13
2019-03-06T19:38:03.315Z,11.14
2019-03-06T19:40:35.352Z,11.14
2019-03-06T19:43:07.367Z,11.14
2019-03-06T19:45:39.366Z,11.13
2019-03-06T19:48:11.448Z,11.13
2019-03-06T19:50:43.801Z,11.11
2019-03-06T19:53:15.830Z,11.12
2019-03-06T19:55:47.800Z,11.11
2019-03-06T19:58:19.780Z,11.12
2019-03-06T20:00:51.745Z,11.13
2019-03-06T20:03:23.711Z,11.13
2019-03-06T20:05:55.675Z,11.15
2019-03-06T20:08:27.722Z,11.16
2019-03-06T20:11:00.053Z,11.15
2019-03-06T20:13:32.413Z,11.16
2019-03-06T20:16:04.391Z,11.16
2019-03-06T20:18:36.350Z,11.14
2019-03-06T20:21:08.317Z,11.15
2019-03-06T20:23:40.275Z,11.14
2019-03-06T20:26:15.014Z,11.12
2019-03-06T20:28:46.731Z,11.10
2019-03-06T20:31:19.017Z,11.08
2019-03-06T20:33:51.018Z,11.07
2019-03-06T20:36:23.003Z,11.05
2019-03-06T20:38:55.831Z,11.03
2019-03-06T20:41:28.344Z,11.00
2019-03-06T20:44:00.296Z,11.00
2019-03-06T20:46:32.297Z,10.98
2019-03-06T20:49:04.699Z,10.95
2019-03-06T20:51:40.362Z,10.94
2019-03-06T20:54:12.550Z,10.92
2019-03-06T20:56:44.512Z,10.91
2019-03-06T20:59:16.761Z,10.90
2019-03-06T21:01:48.755Z,10.87
2019-03-06T21:04:20.846Z,10.86
2019-03-06T21:06:53.089Z,10.87
2019-03-06T21:09:25.336Z,10.86
2019-03-06T21:11:57.319Z,10.87
2019-03-06T21:14:29.280Z,10.86
2019-03-06T21:17:01.255Z,10.85
2019-03-06T21:19:33.198Z,10.82
2019-03-06T21:22:05.650Z,10.82
2019-03-06T21:24:37.935Z,10.81
2019-03-06T21:27:09.910Z,10.81
2019-03-06T21:29:41.858Z,10.80
2019-03-06T21:32:13.811Z,10.80
2019-03-06T21:34:46.142Z,10.80
2019-03-06T21:37:18.252Z,10.80
2019-03-06T21:39:50.211Z,10.80
2019-03-06T21:42:22.148Z,10.79
2019-03-06T21:44:54.097Z,10.79
2019-03-06T21:47:26.232Z,10.79
2019-03-06T21:49:58.183Z,10.80
2019-03-06T21:52:32.642Z,10.78
2019-03-06T21:55:06.363Z,10.76
2019-03-06T21:57:38.519Z,10.75
2019-03-06T22:00:24.436Z,10.75
2019-03-06T22:02:56.753Z,10.72
2019-03-06T22:05:28.788Z,10.70
2019-03-06T22:08:00.754Z,10.71
2019-03-06T22:10:32.722Z,10.70
2019-03-06T22:13:05.106Z,10.69
2019-03-06T22:15:37.056Z,10.68
2019-03-06T22:18:09.985Z,10.69
2019-03-06T22:20:41.936Z,10.67
2019-03-06T22:23:13.923Z,10.67
2019-03-06T22:25:45.890Z,10.67
2019-03-06T22:28:18.213Z,10.66
2019-03-06T22:30:50.198Z,10.66
2019-03-06T22:33:22.339Z,10.65
2019-03-06T22:35:55.033Z,10.63
2019-03-06T22:38:26.987Z,10.63
2019-03-06T22:40:58.949Z,10.64
2019-03-06T22:43:30.973Z,10.63
2019-03-06T22:46:03.325Z,10.63
2019-03-06T22:48:36.897Z,10.62
2019-03-06T22:51:09.119Z,10.63
2019-03-06T22:53:41.139Z,10.62
2019-03-06T22:56:13.110Z,10.62
2019-03-06T22:58:45.055Z,10.60
2019-03-06T23:01:24.504Z,10.62
2019-03-06T23:03:57.269Z,10.61
2019-03-06T23:06:29.227Z,10.61
2019-03-06T23:09:01.216Z,10.61
2019-03-06T23:11:33.218Z,10.62
2019-03-06T23:14:05.173Z,10.62
2019-03-06T23:16:37.118Z,10.62
2019-03-06T23:19:09.258Z,10.63
2019-03-06T23:21:41.219Z,10.64
2019-03-06T23:24:13.488Z,10.65
2019-03-06T23:26:45.481Z,10.64
2019-03-06T23:29:17.407Z,10.66
2019-03-06T23:31:50.480Z,10.67
2019-03-06T23:34:22.695Z,10.67
2019-03-06T23:36:54.756Z,10.68
2019-03-06T23:39:26.707Z,10.69
2019-03-06T23:41:59.079Z,10.70
2019-03-06T23:44:31.049Z,10.70
2019-03-06T23:47:03.165Z,10.69
2019-03-06T23:49:36.931Z,10.70
2019-03-06T23:52:10.415Z,10.72
2019-03-06T23:54:42.705Z,10.72
2019-03-06T23:57:14.750Z,10.72
2019-03-06T23:59:46.706Z,10.72
